Time;durP1;ratioP1;P1;durP2;ratioP2;P2;SDS_P1;SDS_P2;PMS_P1;PMS_P2;Temp;Humidity;BMP_temperature;BMP_pressure;BME280_temperature;BME280_humidity;BME280_pressure;Samples;Min_cycle;Max_cycle;Signal;HPM_P1;HPM_P2
2022/04/27 00:03:04;;;;;;;4.00;2.17;;;;;;;5.07;86.94;99765.91;8223403;28;20121;-70
2022/04/27 00:07:07;;;;;;;2.40;2.20;;;;;;;5.05;86.44;99769.28;8231862;28;20082;-70
2022/04/27 00:11:08;;;;;;;2.58;2.38;;;;;;;5.00;86.86;99766.59;8213269;28;20079;-70
2022/04/27 00:15:10;;;;;;;3.73;2.17;;;;;;;4.85;86.91;99766.25;8206588;28;20051;-70
2022/04/27 00:19:12;;;;;;;3.35;2.30;;;;;;;4.80;86.93;99770.38;8215676;28;20090;-70
2022/04/27 00:23:13;;;;;;;3.57;2.60;;;;;;;4.67;87.29;99769.22;8215214;28;20046;-70
2022/04/27 00:27:15;;;;;;;2.90;2.07;;;;;;;4.65;87.45;99762.28;8214216;28;20133;-70
2022/04/27 00:31:16;;;;;;;2.77;1.93;;;;;;;4.65;87.71;99768.28;8212296;28;20066;-70
2022/04/27 00:35:18;;;;;;;2.27;2.07;;;;;;;4.65;87.57;99760.59;8182409;28;20397;-70
2022/04/27 00:39:19;;;;;;;1.97;1.87;;;;;;;4.61;87.44;99758.78;8193183;28;20077;-70
2022/04/27 00:43:41;;;;;;;2.30;2.10;;;;;;;4.55;87.30;99758.63;8174165;28;20581;-71
2022/04/27 00:47:43;;;;;;;1.70;1.60;;;;;;;4.49;87.20;99758.47;8193809;28;20054;-70
2022/04/27 00:51:45;;;;;;;2.20;1.50;;;;;;;4.42;87.35;99757.44;8189351;28;20648;-70
2022/04/27 00:55:47;;;;;;;1.98;1.88;;;;;;;4.35;87.04;99768.41;8193468;28;20074;-70
2022/04/27 00:59:48;;;;;;;2.17;1.80;;;;;;;4.29;87.24;99770.78;8192780;28;20047;-70
2022/04/27 01:03:50;;;;;;;2.20;2.00;;;;;;;4.24;87.14;99774.94;8195599;28;20046;-71
2022/04/27 01:07:52;;;;;;;1.73;1.63;;;;;;;4.15;87.12;99772.13;8192285;28;20049;-70
2022/04/27 01:11:56;;;;;;;2.40;2.00;;;;;;;4.06;87.74;99780.44;8193378;28;20053;-70
2022/04/27 01:15:57;;;;;;;2.70;2.20;;;;;;;4.06;87.73;99779.56;8174903;28;20045;-70
2022/04/27 01:19:59;;;;;;;2.53;2.20;;;;;;;3.97;87.41;99784.47;8177951;28;20138;-71
2022/04/27 01:24:00;;;;;;;2.47;2.13;;;;;;;3.92;87.75;99780.06;8175881;28;20117;-71
2022/04/27 01:28:02;;;;;;;2.60;2.20;;;;;;;3.87;87.78;99786.78;8177428;28;20075;-70
2022/04/27 01:32:04;;;;;;;3.47;2.03;;;;;;;3.75;87.71;99788.09;8191516;28;20086;-70
2022/04/27 01:36:08;;;;;;;2.08;1.80;;;;;;;3.76;88.09;99777.00;8209356;28;20051;-70
2022/04/27 01:40:10;;;;;;;2.70;2.00;;;;;;;3.74;87.97;99776.09;8197984;28;20081;-70
2022/04/27 01:44:11;;;;;;;2.23;1.90;;;;;;;3.69;87.56;99772.53;8209184;28;20047;-70
2022/04/27 01:48:13;;;;;;;2.10;1.90;;;;;;;3.60;87.56;99768.00;8217846;28;20526;-70
2022/04/27 01:56:34;;;;;;;4.07;2.00;;;;;;;3.60;87.80;99771.44;8200337;28;20049;-70
2022/04/27 02:00:36;;;;;;;2.03;1.83;;;;;;;3.51;87.60;99767.72;8218295;28;20574;-70
2022/04/27 02:04:39;;;;;;;2.60;2.00;;;;;;;3.48;88.23;99771.06;8228566;28;20053;-70
2022/04/27 02:08:41;;;;;;;1.70;1.60;;;;;;;3.44;88.00;99776.09;8213389;28;20069;-70
2022/04/27 02:12:42;;;;;;;3.13;2.00;;;;;;;3.37;88.18;99780.13;8221349;28;20688;-70
2022/04/27 02:16:44;;;;;;;2.50;1.80;;;;;;;3.29;88.26;99779.91;8214969;28;20049;-71
2022/04/27 02:20:46;;;;;;;2.47;2.23;;;;;;;3.23;88.00;99778.84;8227268;28;20065;-70
2022/04/27 02:24:47;;;;;;;4.32;2.22;;;;;;;3.19;88.27;99785.56;8210461;28;20082;-70
2022/04/27 02:28:50;;;;;;;2.37;2.17;;;;;;;3.19;88.45;99782.13;8226867;28;20459;-70
2022/04/27 02:32:52;;;;;;;2.53;2.22;;;;;;;3.15;88.54;99788.88;8222403;28;20483;-70
2022/04/27 02:36:53;;;;;;;3.70;2.93;;;;;;;3.12;88.38;99791.34;8226271;28;20121;-71
2022/04/27 02:40:54;;;;;;;2.40;2.17;;;;;;;3.14;88.89;99791.41;8224298;28;20062;-72
2022/04/27 02:44:56;;;;;;;3.93;2.57;;;;;;;3.10;88.56;99789.56;8225899;28;20074;-70
2022/04/27 02:53:18;;;;;;;2.40;2.20;;;;;;;3.02;88.89;99786.72;8224003;28;20145;-71
2022/04/27 02:57:21;;;;;;;3.10;2.33;;;;;;;3.04;89.31;99785.97;8228826;28;20089;-71
2022/04/27 03:01:22;;;;;;;2.80;2.15;;;;;;;3.04;88.79;99793.66;8225357;28;20173;-71
2022/04/27 03:05:24;;;;;;;3.03;2.73;;;;;;;3.02;88.82;99794.44;8220287;28;20064;-71
2022/04/27 03:09:25;;;;;;;2.37;1.97;;;;;;;2.93;87.91;99799.28;8223135;28;20680;-71
2022/04/27 03:13:27;;;;;;;2.38;2.00;;;;;;;2.86;88.36;99800.75;8206531;28;20657;-70
2022/04/27 03:17:29;;;;;;;2.03;1.83;;;;;;;2.89;88.67;99795.75;8220747;28;20038;-70
2022/04/27 03:21:32;;;;;;;1.83;1.60;;;;;;;2.87;88.86;99801.63;8221160;28;20362;-71
2022/04/27 03:25:34;;;;;;;2.63;2.27;;;;;;;2.79;89.13;99805.63;8222096;28;20777;-70
2022/04/27 03:29:35;;;;;;;2.10;1.90;;;;;;;2.76;88.29;99800.41;8223553;28;20057;-71
2022/04/27 03:33:37;;;;;;;3.47;2.43;;;;;;;2.72;88.27;99794.31;8225765;28;20054;-70
2022/04/27 03:37:38;;;;;;;1.83;1.70;;;;;;;2.69;88.71;99795.09;8231909;28;20039;-70
2022/04/27 03:41:40;;;;;;;2.27;2.07;;;;;;;2.63;88.36;99794.88;8226945;28;20047;-70
2022/04/27 03:45:41;;;;;;;2.40;2.20;;;;;;;2.62;88.51;99795.69;8223828;28;20050;-71
2022/04/27 03:49:43;;;;;;;4.17;2.53;;;;;;;2.60;88.93;99801.59;8228188;28;20062;-71
2022/04/27 03:53:44;;;;;;;2.63;2.20;;;;;;;2.57;89.05;99807.50;8202350;28;20057;-71
2022/04/27 03:57:46;;;;;;;2.53;2.33;;;;;;;2.56;88.83;99808.31;8220532;28;20034;-71
2022/04/27 04:01:47;;;;;;;4.33;3.00;;;;;;;2.53;88.58;99812.47;8229179;28;20101;-71
2022/04/27 04:05:49;;;;;;;4.07;2.90;;;;;;;2.43;88.66;99811.25;8229413;28;20050;-71
2022/04/27 04:09:51;;;;;;;2.57;2.37;;;;;;;2.39;88.53;99817.13;8230938;28;20055;-70
2022/04/27 04:13:52;;;;;;;2.20;1.90;;;;;;;2.39;88.84;99822.22;8226981;28;20074;-71
2022/04/27 04:17:54;;;;;;;3.23;2.43;;;;;;;2.34;89.23;99826.34;8228970;28;20474;-71
2022/04/27 04:21:55;;;;;;;2.40;2.20;;;;;;;2.28;88.79;99819.28;8202096;28;20057;-71
2022/04/27 04:30:17;;;;;;;3.07;2.10;;;;;;;2.24;89.23;99829.38;8211704;28;20214;-71
2022/04/27 04:34:19;;;;;;;2.93;2.23;;;;;;;2.26;89.66;99838.84;8220992;28;20664;-71
2022/04/27 04:38:20;;;;;;;2.67;2.47;;;;;;;2.27;88.99;99839.72;8224244;28;20093;-71
2022/04/27 04:42:22;;;;;;;3.20;2.43;;;;;;;2.25;88.67;99847.34;8208813;28;20042;-71
2022/04/27 04:46:23;;;;;;;2.27;2.00;;;;;;;2.24;89.10;99860.13;8221218;28;20129;-71
2022/04/27 04:50:25;;;;;;;2.80;2.40;;;;;;;2.33;89.25;99863.00;8225075;28;20053;-71
2022/04/27 04:54:26;;;;;;;2.00;1.80;;;;;;;2.36;89.43;99863.13;8223602;28;20047;-71
2022/04/27 04:58:27;;;;;;;7.20;2.53;;;;;;;2.38;89.44;99866.63;8222460;28;20038;-73
2022/04/27 05:02:31;;;;;;;2.57;2.37;;;;;;;2.47;89.63;99863.50;8203545;28;20047;-72
2022/04/27 05:06:33;;;;;;;3.10;1.97;;;;;;;2.52;89.05;99869.69;8217454;28;20050;-72
2022/04/27 05:10:35;;;;;;;2.57;1.97;;;;;;;2.58;89.34;99873.31;8219349;28;20129;-73
2022/04/27 05:14:37;;;;;;;1.98;1.85;;;;;;;2.64;88.56;99876.09;8219752;28;20046;-72
2022/04/27 05:18:39;;;;;;;3.22;1.98;;;;;;;2.77;88.81;99884.22;8230701;28;20102;-72
2022/04/27 05:22:40;;;;;;;3.30;2.37;;;;;;;2.86;88.24;99890.50;8233663;28;20054;-72
2022/04/27 05:26:42;;;;;;;4.10;2.03;;;;;;;2.98;88.78;99885.81;8227618;28;20735;-72
2022/04/27 05:35:04;;;;;;;3.20;2.20;;;;;;;3.29;88.91;99889.38;8223038;28;20145;-73
2022/04/27 05:39:05;;;;;;;5.22;2.92;;;;;;;3.74;88.66;99902.78;8203582;28;20070;-72
2022/04/27 05:43:09;;;;;;;2.50;2.30;;;;;;;4.49;86.10;99902.47;8205389;28;20419;-73
2022/04/27 05:47:11;;;;;;;4.27;2.60;;;;;;;4.94;84.53;99904.53;8205248;28;20062;-73
2022/04/27 05:51:13;;;;;;;2.40;2.10;;;;;;;5.21;84.12;99909.53;8208925;28;20735;-73
2022/04/27 05:55:14;;;;;;;2.90;2.60;;;;;;;5.53;82.91;99911.16;8199716;28;20200;-73
2022/04/27 05:59:17;;;;;;;7.18;2.88;;;;;;;5.82;82.03;99911.00;8201067;28;20611;-73
2022/04/27 06:03:18;;;;;;;4.72;2.53;;;;;;;6.10;80.94;99915.06;8222760;28;20130;-73
2022/04/27 06:07:20;;;;;;;5.17;2.90;;;;;;;6.35;80.01;99918.22;8223826;28;20047;-74
2022/04/27 06:11:22;;;;;;;3.47;3.17;;;;;;;6.64;79.18;99921.41;8208968;28;20070;-73
2022/04/27 06:15:24;;;;;;;5.03;2.70;;;;;;;6.92;78.63;99919.34;8226343;28;20051;-73
2022/04/27 06:19:25;;;;;;;4.18;3.20;;;;;;;7.30;78.06;99925.19;8207771;28;20042;-73
2022/04/27 06:23:27;;;;;;;5.85;3.40;;;;;;;7.63;77.09;99929.19;8206393;28;20038;-73
2022/04/27 06:27:29;;;;;;;7.07;3.47;;;;;;;8.01;76.07;99928.03;8207540;28;20042;-73
2022/04/27 06:31:31;;;;;;;4.93;3.65;;;;;;;8.34;75.07;99921.63;8202061;28;20063;-73
2022/04/27 06:35:32;;;;;;;5.38;3.40;;;;;;;8.71;74.33;99925.53;8221008;28;20073;-73
2022/04/27 06:39:34;;;;;;;7.70;3.83;;;;;;;8.92;73.80;99930.97;8215069;28;20476;-73
2022/04/27 06:43:35;;;;;;;5.63;3.83;;;;;;;9.12;74.02;99933.75;8222061;28;20043;-73
2022/04/27 06:47:37;;;;;;;11.07;5.38;;;;;;;9.29;73.23;99929.59;8212999;28;20047;-73
2022/04/27 06:51:38;;;;;;;7.78;4.80;;;;;;;9.62;73.34;99934.22;8200578;28;20058;-73
2022/04/27 06:55:40;;;;;;;11.80;6.75;;;;;;;9.85;72.02;99939.56;8211711;28;20149;-73
2022/04/27 06:59:42;;;;;;;9.50;5.95;;;;;;;10.26;71.75;99937.31;8216473;28;20079;-73
2022/04/27 07:03:44;;;;;;;9.55;6.75;;;;;;;10.67;71.96;99938.34;8220761;28;20422;-73
2022/04/27 07:07:47;;;;;;;12.80;7.57;;;;;;;11.11;70.85;99941.06;8229147;28;20503;-73
2022/04/27 07:11:48;;;;;;;;;;;;;;;11.24;69.37;99944.56;8224163;28;20046;-73
2022/04/27 07:15:51;;;;;;;8.18;6.72;;;;;;;11.39;68.77;99953.28;8205290;28;19952;-73
2022/04/27 07:19:53;;;;;;;8.63;7.20;;;;;;;11.36;69.64;99958.47;8228875;28;20137;-74
2022/04/27 07:23:56;;;;;;;14.68;8.93;;;;;;;11.23;68.90;99964.50;8213695;28;20649;-73
2022/04/27 07:27:57;;;;;;;11.10;8.57;;;;;;;11.13;69.64;99962.72;8216961;28;20152;-73
2022/04/27 07:31:59;;;;;;;9.75;7.15;;;;;;;11.11;70.47;99965.34;8226579;28;20055;-73
2022/04/27 07:36:01;;;;;;;8.50;7.63;;;;;;;11.14;70.71;99970.56;8227942;28;20066;-73
2022/04/27 07:40:03;;;;;;;8.30;7.50;;;;;;;11.40;70.84;99968.00;8225763;28;20039;-73
2022/04/27 07:44:06;;;;;;;7.88;7.05;;;;;;;11.52;69.99;99969.75;8228021;28;20057;-73
2022/04/27 07:48:08;;;;;;;8.95;7.95;;;;;;;11.66;69.27;99964.53;8227083;28;20074;-73
2022/04/27 07:52:09;;;;;;;11.35;7.97;;;;;;;11.83;69.06;99969.78;8228231;28;20678;-73
2022/04/27 07:56:10;;;;;;;8.15;7.00;;;;;;;12.30;68.83;99973.22;8225266;28;20047;-72
2022/04/27 08:00:13;;;;;;;8.32;7.13;;;;;;;12.70;66.63;99971.34;8212390;28;20078;-73
2022/04/27 08:04:16;;;;;;;7.88;7.00;;;;;;;13.16;65.04;99972.91;8208634;28;20057;-72
2022/04/27 08:08:18;;;;;;;8.05;7.18;;;;;;;13.57;63.31;99975.25;8204559;28;20337;-73
2022/04/27 08:12:21;;;;;;;7.50;6.75;;;;;;;13.93;62.89;99983.69;8209893;28;20153;-73
2022/04/27 08:16:22;;;;;;;8.65;7.85;;;;;;;14.24;61.61;99977.31;8224235;28;20065;-73
2022/04/27 08:24:46;;;;;;;8.93;8.13;;;;;;;14.73;59.53;99977.69;8228891;28;20584;-73
2022/04/27 08:28:48;;;;;;;9.32;7.30;;;;;;;15.05;58.93;99973.78;8228546;28;20053;-73
2022/04/27 08:32:50;;;;;;;10.43;7.47;;;;;;;15.40;58.84;99986.38;8206087;28;20070;-73
2022/04/27 08:36:51;;;;;;;7.97;7.18;;;;;;;15.70;57.38;99979.84;8210786;28;20051;-73
2022/04/27 08:40:54;;;;;;;8.23;7.43;;;;;;;15.81;55.80;99988.41;8212857;28;20074;-73
2022/04/27 08:44:55;;;;;;;7.85;6.97;;;;;;;15.82;55.75;99981.41;8207643;28;20057;-74
2022/04/27 08:48:57;;;;;;;9.15;8.35;;;;;;;15.97;55.36;99970.66;8227524;28;20052;-72
2022/04/27 08:52:59;;;;;;;11.20;7.30;;;;;;;16.15;56.16;99983.44;8204150;28;20046;-73
2022/04/27 08:57:03;;;;;;;9.20;7.80;;;;;;;16.27;54.85;99975.38;8226856;28;20309;-73
2022/04/27 09:01:04;;;;;;;7.68;6.97;;;;;;;16.41;54.11;99975.13;8203975;28;20084;-73
2022/04/27 09:05:08;;;;;;;7.67;6.93;;;;;;;16.64;53.29;99985.16;8233900;28;20069;-73
2022/04/27 09:09:34;;;;;;;7.25;6.55;;;;;;;16.75;53.74;99978.00;8223754;28;20070;-73
2022/04/27 09:13:35;;;;;;;7.50;6.80;;;;;;;17.05;53.48;99984.34;8224522;28;20663;-73
2022/04/27 09:22:03;;;;;;;8.70;7.97;;;;;;;17.33;52.14;99981.13;8226710;28;20057;-72
2022/04/27 09:26:28;;;;;;;10.38;6.32;;;;;;;17.38;52.02;99982.75;8224261;28;20072;-73
2022/04/27 09:30:31;;;;;;;7.15;6.55;;;;;;;17.61;51.29;99984.88;8201405;28;20654;-72
2022/04/27 09:34:46;;;;;;;7.50;5.80;;;;;;;17.70;50.78;99979.41;8226647;28;20082;-71
2022/04/27 09:38:48;;;;;;;6.65;6.05;;;;;;;17.75;50.06;99974.03;8202742;28;20141;-72
2022/04/27 09:42:59;;;;;;;5.97;5.47;;;;;;;17.84;50.06;99975.59;8195877;28;20051;-73
2022/04/27 09:47:04;;;;;;;7.10;4.97;;;;;;;17.83;50.37;99973.88;8223011;28;20059;-71
2022/04/27 09:51:15;;;;;;;4.60;4.20;;;;;;;17.86;49.28;99976.41;8221417;28;20050;-71
2022/04/27 09:55:16;;;;;;;5.00;4.30;;;;;;;18.04;49.73;99981.22;8223072;28;20434;-72
2022/04/27 09:59:26;;;;;;;4.80;4.40;;;;;;;18.21;48.79;99972.91;8222279;28;20053;-72
2022/04/27 10:03:27;;;;;;;3.88;3.50;;;;;;;18.42;49.16;99967.06;8200029;28;20039;-72
2022/04/27 10:07:32;;;;;;;5.53;3.97;;;;;;;18.60;48.17;99963.06;8223182;28;20114;-72
2022/04/27 10:11:35;;;;;;;3.60;3.40;;;;;;;18.67;47.32;99965.53;8199032;28;20042;-71
2022/04/27 10:15:41;;;;;;;4.10;3.65;;;;;;;18.86;47.56;99960.59;8204275;28;20130;-71
2022/04/27 10:19:46;;;;;;;4.15;3.78;;;;;;;19.07;46.46;99963.50;8207041;28;20134;-72
2022/04/27 10:23:48;;;;;;;4.15;3.75;;;;;;;19.18;45.60;99966.66;8212838;28;20135;-72
2022/04/27 10:27:49;;;;;;;7.05;3.28;;;;;;;19.21;45.09;99969.19;8212044;28;20042;-71
2022/04/27 10:31:54;;;;;;;4.33;3.10;;;;;;;19.29;44.77;99967.19;8210823;28;20055;-72
2022/04/27 10:36:22;;;;;;;5.22;3.15;;;;;;;19.43;45.19;99957.09;8195006;28;20619;-71
2022/04/27 10:40:29;;;;;;;3.65;2.90;;;;;;;19.71;44.37;99954.47;8212790;28;20043;-72
2022/04/27 10:44:50;;;;;;;3.55;3.35;;;;;;;19.95;42.57;99957.22;8188166;28;20066;-72
2022/04/27 10:48:52;;;;;;;3.28;3.00;;;;;;;20.16;43.00;99957.34;8176612;28;20054;-72
2022/04/27 10:52:57;;;;;;;3.58;3.30;;;;;;;20.34;42.96;99954.97;8198185;28;20499;-72
2022/04/27 10:57:14;;;;;;;3.28;3.08;;;;;;;20.55;41.16;99967.44;8213940;28;20113;-72
2022/04/27 11:01:19;;;;;;;3.53;3.22;;;;;;;20.43;40.27;99963.44;8198530;28;20474;-72
2022/04/27 11:05:21;;;;;;;2.95;2.78;;;;;;;20.31;41.30;99965.66;8199333;28;20093;-72
2022/04/27 11:09:27;;;;;;;2.97;2.78;;;;;;;20.29;40.98;99960.44;8217096;28;20050;-71
2022/04/27 11:13:30;;;;;;;3.35;3.15;;;;;;;20.31;40.46;99960.38;8213834;28;21524;-72
2022/04/27 11:17:34;;;;;;;3.20;2.20;;;;;;;20.58;40.36;99966.47;8207184;28;20079;-72
2022/04/27 11:21:35;;;;;;;2.63;2.42;;;;;;;20.55;39.90;99971.84;8207115;28;20050;-71
2022/04/27 11:25:39;;;;;;;5.10;2.38;;;;;;;20.48;41.06;99956.25;8203250;28;20074;-72
2022/04/27 11:29:41;;;;;;;6.13;2.30;;;;;;;20.57;40.97;99951.53;8183946;28;20483;-72
2022/04/27 11:33:43;;;;;;;1.90;1.80;;;;;;;20.78;40.72;99948.09;8200982;28;20149;-72
2022/04/27 11:37:44;;;;;;;3.20;2.45;;;;;;;20.94;38.26;99948.41;8174793;28;20504;-72
2022/04/27 11:41:46;;;;;;;2.33;2.13;;;;;;;20.98;38.16;99942.06;8191305;28;20086;-71
2022/04/27 11:45:50;;;;;;;3.08;1.95;;;;;;;21.11;38.06;99946.84;8194960;28;20047;-72
2022/04/27 11:50:00;;;;;;;2.88;2.28;;;;;;;21.11;38.63;99940.69;8181917;28;20053;-72
2022/04/27 11:54:01;;;;;;;1.80;1.70;;;;;;;21.15;37.56;99926.44;8178827;28;20587;-72
2022/04/27 11:58:05;;;;;;;3.88;1.98;;;;;;;21.15;38.46;99936.16;8183661;28;20444;-72
2022/04/27 12:02:08;;;;;;;4.40;1.92;;;;;;;20.90;38.33;99945.03;8180042;28;20054;-72
2022/04/27 12:06:17;;;;;;;3.67;2.00;;;;;;;20.62;38.86;99941.69;8183540;28;20463;-71
2022/04/27 12:10:18;;;;;;;2.78;1.50;;;;;;;20.22;38.24;99941.28;8182857;28;20288;-71
2022/04/27 12:14:20;;;;;;;2.80;1.52;;;;;;;20.16;37.74;99936.25;8192405;28;20050;-72
2022/04/27 12:18:27;;;;;;;1.63;1.52;;;;;;;20.33;38.42;99926.88;8189169;28;20126;-72
2022/04/27 12:22:28;;;;;;;5.18;1.98;;;;;;;20.14;38.43;99924.03;8182316;28;20137;-72
2022/04/27 12:26:39;;;;;;;1.75;1.08;;;;;;;20.38;38.64;99923.16;8177202;28;20057;-72
2022/04/27 12:30:54;;;;;;;1.52;1.42;;;;;;;20.75;38.19;99921.84;8182999;28;20708;-72
2022/04/27 12:39:38;;;;;;;1.35;1.25;;;;;;;21.25;36.95;99917.28;8192958;28;20043;-71
2022/04/27 12:43:46;;;;;;;1.48;1.35;;;;;;;21.20;35.73;99923.66;8186193;28;20070;-72
2022/04/27 12:48:04;;;;;;;1.60;1.33;;;;;;;20.57;37.19;99927.78;8168136;29;20055;-71
2022/04/27 12:52:18;;;;;;;2.25;1.50;;;;;;;20.73;38.75;99913.13;8179083;28;20273;-72
2022/04/27 12:56:20;;;;;;;1.50;1.40;;;;;;;20.69;37.48;99912.38;8194908;28;20051;-71
2022/04/27 13:00:46;;;;;;;1.92;1.30;;;;;;;20.93;37.78;99904.44;8187207;28;20049;-69
2022/04/27 13:04:48;;;;;;;3.25;1.35;;;;;;;20.64;36.91;99908.16;8193366;28;20047;-71
2022/04/27 13:08:50;;;;;;;;;;;;;;;20.20;37.30;99908.00;8190864;28;20051;-72
2022/04/27 13:12:52;;;;;;;3.15;1.30;;;;;;;19.65;38.28;99904.63;8186478;28;19965;-71
2022/04/27 13:16:54;;;;;;;1.30;1.20;;;;;;;19.35;38.64;99895.03;8189413;28;20134;-71
2022/04/27 13:20:55;;;;;;;2.60;1.10;;;;;;;19.12;40.01;99891.38;8168219;28;20043;-71
2022/04/27 13:24:57;;;;;;;2.33;1.30;;;;;;;19.20;39.52;99896.38;8173542;28;20057;-71
2022/04/27 13:28:59;;;;;;;1.20;1.10;;;;;;;19.21;40.19;99885.81;8189570;28;20039;-71
2022/04/27 13:33:00;;;;;;;1.60;1.08;;;;;;;19.59;39.92;99878.47;8161467;28;20059;-72
2022/04/27 13:37:02;;;;;;;1.15;1.02;;;;;;;20.12;38.82;99878.41;8210256;28;20051;-71
2022/04/27 13:41:03;;;;;;;1.40;1.30;;;;;;;20.60;36.98;99865.22;8210425;28;20038;-71
2022/04/27 13:45:06;;;;;;;2.25;1.20;;;;;;;20.90;35.95;99859.69;8209941;28;20612;-72
2022/04/27 13:49:08;;;;;;;1.83;1.10;;;;;;;20.74;36.53;99870.81;8218529;28;20613;-72
2022/04/27 13:53:09;;;;;;;1.17;1.10;;;;;;;20.27;35.21;99876.97;8205986;28;20040;-72
2022/04/27 13:57:10;;;;;;;1.08;0.93;;;;;;;19.98;36.10;99883.31;8224071;28;20061;-71
2022/04/27 14:01:12;;;;;;;5.20;1.02;;;;;;;19.70;36.47;99878.09;8231816;28;20076;-75
2022/04/27 14:05:14;;;;;;;1.23;1.10;;;;;;;19.58;37.97;99879.41;8226630;28;20106;-72
2022/04/27 14:09:15;;;;;;;1.75;0.98;;;;;;;19.48;38.36;99870.88;8227056;28;20043;-72
2022/04/27 14:13:17;;;;;;;2.38;0.90;;;;;;;19.46;38.07;99866.59;8232113;28;20510;-72
2022/04/27 14:21:39;;;;;;;2.70;1.30;;;;;;;19.61;37.20;99876.66;8204045;28;20363;-72
2022/04/27 14:25:42;;;;;;;1.15;1.00;;;;;;;19.35;37.57;99873.97;8226755;28;20085;-72
2022/04/27 14:29:45;;;;;;;1.42;1.25;;;;;;;19.18;36.89;99869.25;8227948;28;20117;-72
2022/04/27 14:33:48;;;;;;;1.33;1.08;;;;;;;19.00;38.61;99865.41;8223886;28;20062;-72
2022/04/27 14:37:50;;;;;;;1.17;1.00;;;;;;;18.87;38.42;99859.69;8227212;28;20071;-72
2022/04/27 14:41:52;;;;;;;;;;;;;;;18.77;38.62;99860.00;8187615;28;20061;-72
2022/04/27 14:45:53;;;;;;;1.83;0.97;;;;;;;18.64;39.86;99857.72;8224268;28;19948;-72
2022/04/27 14:49:56;;;;;;;3.17;1.08;;;;;;;18.55;40.14;99858.00;8211057;28;20326;-72
2022/04/27 14:53:58;;;;;;;3.58;1.10;;;;;;;18.52;39.83;99850.19;8213756;28;20457;-72
2022/04/27 14:58:00;;;;;;;1.38;1.02;;;;;;;18.75;40.34;99857.41;8213592;28;20043;-72
2022/04/27 15:02:03;;;;;;;4.40;1.17;;;;;;;18.86;39.47;99863.22;8216340;28;20065;-73
2022/04/27 15:06:05;;;;;;;1.67;1.20;;;;;;;18.65;39.10;99871.75;8206370;28;20053;-73
2022/04/27 15:10:07;;;;;;;2.55;1.25;;;;;;;18.57;39.69;99869.31;8179894;28;20424;-72
2022/04/27 15:14:08;;;;;;;2.75;1.20;;;;;;;18.50;40.08;99880.94;8217944;28;20055;-72
2022/04/27 15:18:10;;;;;;;3.67;1.15;;;;;;;18.50;40.07;99869.56;8220853;28;20070;-73
2022/04/27 15:30:52;;;;;;;3.22;0.93;;;;;;;18.35;40.44;99855.09;8202653;28;20081;-72
2022/04/27 15:34:54;;;;;;;18.40;1.63;;;;;;;18.33;40.92;99860.38;8215629;28;20107;-72
2022/04/27 15:38:55;;;;;;;1.37;1.10;;;;;;;18.44;40.19;99857.44;8231366;28;20042;-72
2022/04/27 15:43:01;;;;;;;1.43;0.90;;;;;;;18.44;39.62;99857.44;8218973;28;20311;-73
2022/04/27 15:47:04;;;;;;;1.50;1.25;;;;;;;18.60;39.84;99858.72;8219678;28;20308;-73
2022/04/27 15:51:07;;;;;;;1.08;1.02;;;;;;;18.85;39.01;99863.25;8214013;28;20051;-72
2022/04/27 15:55:11;;;;;;;1.40;1.30;;;;;;;18.92;38.33;99857.78;8218054;28;20051;-72
2022/04/27 15:59:13;;;;;;;6.45;1.00;;;;;;;19.33;38.03;99864.34;8205865;28;20047;-73
2022/04/27 16:03:17;;;;;;;2.72;1.20;;;;;;;19.83;37.29;99871.50;8221125;28;20490;-73
2022/04/27 16:07:19;;;;;;;2.80;1.20;;;;;;;19.99;35.77;99874.47;8233589;28;20202;-73
2022/04/27 16:11:21;;;;;;;1.30;1.20;;;;;;;19.77;35.45;99879.63;8226940;28;20056;-73
2022/04/27 16:15:22;;;;;;;1.60;1.17;;;;;;;19.30;35.84;99877.63;8215869;28;20047;-73
2022/04/27 16:19:26;;;;;;;1.00;0.88;;;;;;;19.04;36.79;99871.47;8220637;28;20347;-73
2022/04/27 16:23:28;;;;;;;1.23;1.00;;;;;;;19.06;37.45;99874.91;8219580;28;20066;-73
2022/04/27 16:27:29;;;;;;;1.27;1.00;;;;;;;18.94;37.96;99874.38;8221212;28;20159;-73
2022/04/27 16:31:31;;;;;;;1.35;1.20;;;;;;;18.74;38.45;99875.88;8204891;28;20069;-73
2022/04/27 16:35:32;;;;;;;0.98;0.98;;;;;;;18.57;39.77;99874.59;8217419;28;20088;-73
2022/04/27 16:39:34;;;;;;;1.17;0.80;;;;;;;18.43;39.60;99874.97;8218900;28;20043;-73
2022/04/27 16:43:37;;;;;;;1.67;0.90;;;;;;;18.33;40.49;99876.16;8203338;28;20472;-73
2022/04/27 16:47:38;;;;;;;0.80;0.80;;;;;;;18.18;38.38;99870.47;8221602;28;20078;-73
2022/04/27 16:51:40;;;;;;;1.33;1.23;;;;;;;18.02;38.99;99886.66;8184668;28;20130;-73
2022/04/27 16:55:41;;;;;;;1.10;0.95;;;;;;;17.88;39.65;99890.53;8220161;28;20085;-73
2022/04/27 16:59:42;;;;;;;1.17;1.07;;;;;;;17.72;40.74;99893.56;8218684;28;20070;-73
2022/04/27 17:03:45;;;;;;;;;;;;;;;17.56;41.35;99888.69;8222856;28;20494;-73
2022/04/27 17:07:46;;;;;;;3.92;1.20;;;;;;;17.36;41.60;99884.78;8225042;28;20282;-73
2022/04/27 17:11:47;;;;;;;1.33;1.23;;;;;;;17.18;42.17;99886.09;8210062;28;20432;-73
2022/04/27 17:15:52;;;;;;;1.25;1.15;;;;;;;17.01;42.24;99880.38;8219838;28;20085;-73
2022/04/27 17:19:54;;;;;;;1.30;1.20;;;;;;;16.88;43.32;99886.81;8198778;28;20738;-73
2022/04/27 17:23:55;;;;;;;1.40;1.23;;;;;;;16.70;44.80;99889.84;8220242;28;20046;-73
2022/04/27 17:28:00;;;;;;;3.35;1.30;;;;;;;16.56;44.37;99883.06;8220113;28;20054;-73
2022/04/27 17:32:02;;;;;;;2.53;1.33;;;;;;;16.42;44.62;99882.50;8215984;28;20043;-73
2022/04/27 17:36:04;;;;;;;1.60;1.20;;;;;;;16.38;44.19;99887.84;8216455;28;20319;-73
2022/04/27 17:40:06;;;;;;;1.23;1.20;;;;;;;16.30;44.12;99886.22;8214510;28;20074;-73
2022/04/27 17:44:08;;;;;;;3.30;1.38;;;;;;;16.23;44.78;99886.38;8216049;28;20054;-73
2022/04/27 17:48:09;;;;;;;1.77;1.27;;;;;;;16.17;43.78;99887.38;8202434;28;20158;-72
2022/04/27 17:52:11;;;;;;;4.13;1.30;;;;;;;16.10;43.61;99901.44;8218446;28;20047;-73
2022/04/27 17:56:12;;;;;;;1.40;1.30;;;;;;;16.05;44.18;99905.06;8218945;28;20515;-73
2022/04/27 18:00:15;;;;;;;2.35;1.08;;;;;;;15.95;45.11;99907.84;8218448;28;20066;-73
2022/04/27 18:04:23;;;;;;;2.85;1.45;;;;;;;15.89;45.10;99913.19;8202941;28;20050;-73
2022/04/27 18:08:25;;;;;;;2.30;1.00;;;;;;;15.81;46.27;99919.47;8215688;28;20140;-73
2022/04/27 18:12:26;;;;;;;2.23;1.20;;;;;;;15.66;47.19;99933.66;8217922;28;20486;-73
2022/04/27 18:16:28;;;;;;;2.95;1.73;;;;;;;15.53;47.70;99935.59;8214867;28;20407;-72
2022/04/27 18:20:30;;;;;;;1.10;1.00;;;;;;;15.43;47.43;99932.22;8217763;28;20061;-73
2022/04/27 18:24:31;;;;;;;1.20;1.10;;;;;;;15.31;47.67;99931.56;8201381;28;20113;-72
2022/04/27 18:28:34;;;;;;;2.35;1.10;;;;;;;15.21;47.87;99940.44;8214703;28;20682;-72
2022/04/27 18:32:36;;;;;;;;;;;;;;;15.06;48.32;99944.13;8218453;28;20089;-71
2022/04/27 18:36:37;;;;;;;0.93;0.93;;;;;;;14.91;49.59;99939.13;8222108;28;20029;-72
2022/04/27 18:40:39;;;;;;;1.63;1.35;;;;;;;14.67;49.78;99942.88;8220882;28;20047;-72
2022/04/27 18:53:27;;;;;;;3.05;1.13;;;;;;;13.88;55.35;99958.50;8221194;28;20078;-72
2022/04/27 18:57:28;;;;;;;2.97;0.90;;;;;;;13.57;57.27;99965.69;8223768;28;20086;-71
2022/04/27 19:01:30;;;;;;;1.20;1.10;;;;;;;13.36;57.79;99968.47;8222396;28;20082;-72
2022/04/27 19:05:32;;;;;;;3.80;1.38;;;;;;;13.16;58.76;99968.53;8205101;28;20081;-71
2022/04/27 19:09:34;;;;;;;2.30;1.10;;;;;;;12.92;59.91;99977.34;8212683;28;20141;-71
2022/04/27 19:13:38;;;;;;;1.42;1.10;;;;;;;12.73;60.27;99983.50;8231975;28;20915;-71
2022/04/27 19:17:39;;;;;;;1.30;0.95;;;;;;;12.51;61.94;99998.34;8208540;28;20070;-71
2022/04/27 19:21:41;;;;;;;3.60;1.37;;;;;;;12.35;61.90;99989.69;8231561;28;20038;-71
2022/04/27 19:25:43;;;;;;;3.92;1.13;;;;;;;12.28;61.80;100002.72;8231571;28;20042;-71
2022/04/27 19:29:45;;;;;;;3.33;1.10;;;;;;;12.09;63.22;100005.34;8224854;28;20039;-71
2022/04/27 19:33:46;;;;;;;1.30;1.20;;;;;;;11.94;64.15;100001.88;8231883;28;20069;-71
2022/04/27 19:37:50;;;;;;;1.48;1.30;;;;;;;11.79;65.11;100003.63;8212375;28;20078;-72
2022/04/27 19:41:52;;;;;;;2.03;1.52;;;;;;;11.64;65.80;100006.16;8214275;28;20499;-71
2022/04/27 19:50:14;;;;;;;2.17;1.27;;;;;;;11.39;67.14;100013.06;8216177;28;20043;-71
2022/04/27 19:54:15;;;;;;;3.83;1.65;;;;;;;11.31;67.65;100013.91;8223629;28;20070;-71
2022/04/27 19:58:17;;;;;;;5.55;1.73;;;;;;;11.16;68.33;100017.34;8220041;28;20074;-71
2022/04/27 20:02:22;;;;;;;1.50;1.40;;;;;;;11.06;68.73;100010.38;8200644;28;20043;-71
2022/04/27 20:06:27;;;;;;;1.27;1.17;;;;;;;10.98;69.35;100017.28;8219920;28;20133;-71